sensor_id;sensor_type;location;lat;lon;timestamp;pressure;altitude;pressure_sealevel;temperature;humidity
9899;BME280;4988;49.238;6.698;2022-08-05T00:01:19;98702.97;;;23.52;83.42
9899;BME280;4988;49.238;6.698;2022-08-05T00:03:46;98703.75;;;23.44;85.26
9899;BME280;4988;49.238;6.698;2022-08-05T00:06:11;98702.28;;;23.50;88.14
9899;BME280;4988;49.238;6.698;2022-08-05T00:08:37;98704.63;;;23.44;84.51
9899;BME280;4988;49.238;6.698;2022-08-05T00:11:06;98707.25;;;23.28;86.32
9899;BME280;4988;49.238;6.698;2022-08-05T00:13:33;98716.00;;;23.40;88.28
9899;BME280;4988;49.238;6.698;2022-08-05T00:15:59;98727.69;;;23.40;88.26
9899;BME280;4988;49.238;6.698;2022-08-05T00:18:24;98746.13;;;23.20;89.95
9899;BME280;4988;49.238;6.698;2022-08-05T00:20:50;98775.16;;;22.75;92.22
9899;BME280;4988;49.238;6.698;2022-08-05T00:23:16;98818.66;;;22.47;93.71
9899;BME280;4988;49.238;6.698;2022-08-05T00:25:41;98833.97;;;22.21;95.14
9899;BME280;4988;49.238;6.698;2022-08-05T00:28:07;98840.44;;;22.10;95.58
9899;BME280;4988;49.238;6.698;2022-08-05T00:30:32;98819.06;;;22.07;96.12
9899;BME280;4988;49.238;6.698;2022-08-05T00:32:57;98795.31;;;22.19;95.31
9899;BME280;4988;49.238;6.698;2022-08-05T00:35:23;98787.16;;;22.37;92.99
9899;BME280;4988;49.238;6.698;2022-08-05T00:37:48;98772.47;;;22.39;92.48
9899;BME280;4988;49.238;6.698;2022-08-05T00:40:13;98828.94;;;22.26;93.33
9899;BME280;4988;49.238;6.698;2022-08-05T00:42:39;98831.25;;;22.21;93.22
9899;BME280;4988;49.238;6.698;2022-08-05T00:45:07;98829.53;;;22.20;96.29
9899;BME280;4988;49.238;6.698;2022-08-05T00:47:32;98879.31;;;22.00;97.87
9899;BME280;4988;49.238;6.698;2022-08-05T00:49:58;98884.44;;;21.76;98.92
9899;BME280;4988;49.238;6.698;2022-08-05T00:52:23;98923.38;;;21.55;100.00
9899;BME280;4988;49.238;6.698;2022-08-05T00:54:49;98892.47;;;21.48;96.05
9899;BME280;4988;49.238;6.698;2022-08-05T00:57:14;98888.34;;;21.53;95.67
9899;BME280;4988;49.238;6.698;2022-08-05T00:59:39;98880.63;;;21.59;95.43
9899;BME280;4988;49.238;6.698;2022-08-05T01:02:05;98856.63;;;21.74;97.49
9899;BME280;4988;49.238;6.698;2022-08-05T01:04:30;98827.28;;;21.97;98.67
9899;BME280;4988;49.238;6.698;2022-08-05T01:06:55;98839.59;;;22.09;98.49
9899;BME280;4988;49.238;6.698;2022-08-05T01:09:21;98848.94;;;22.25;98.96
9899;BME280;4988;49.238;6.698;2022-08-05T01:11:48;98836.38;;;22.24;98.49
9899;BME280;4988;49.238;6.698;2022-08-05T01:17:04;98790.75;;;22.19;98.26
9899;BME280;4988;49.238;6.698;2022-08-05T01:28:13;98694.34;;;22.43;97.88
9899;BME280;4988;49.238;6.698;2022-08-05T01:30:45;98689.00;;;22.33;99.20
9899;BME280;4988;49.238;6.698;2022-08-05T01:33:14;98703.34;;;22.25;97.48
9899;BME280;4988;49.238;6.698;2022-08-05T01:35:41;98711.09;;;22.20;96.66
9899;BME280;4988;49.238;6.698;2022-08-05T01:38:08;98733.41;;;22.14;98.32
9899;BME280;4988;49.238;6.698;2022-08-05T01:40:34;98709.69;;;22.16;98.65
9899;BME280;4988;49.238;6.698;2022-08-05T01:43:02;98734.72;;;22.10;97.78
9899;BME280;4988;49.238;6.698;2022-08-05T01:45:31;98755.94;;;22.14;99.13
9899;BME280;4988;49.238;6.698;2022-08-05T01:47:59;98758.38;;;22.17;100.00
9899;BME280;4988;49.238;6.698;2022-08-05T01:50:31;98777.09;;;22.11;100.00
9899;BME280;4988;49.238;6.698;2022-08-05T01:53:02;98811.13;;;21.77;100.00
9899;BME280;4988;49.238;6.698;2022-08-05T01:55:31;98855.31;;;21.40;100.00
9899;BME280;4988;49.238;6.698;2022-08-05T01:57:57;98910.94;;;20.95;100.00
9899;BME280;4988;49.238;6.698;2022-08-05T02:00:24;98997.13;;;20.49;100.00
9899;BME280;4988;49.238;6.698;2022-08-05T02:02:54;99014.75;;;20.34;100.00
9899;BME280;4988;49.238;6.698;2022-08-05T02:05:21;99001.91;;;20.36;100.00
9899;BME280;4988;49.238;6.698;2022-08-05T02:07:49;99004.25;;;20.50;100.00
9899;BME280;4988;49.238;6.698;2022-08-05T02:10:14;98985.50;;;20.68;100.00
9899;BME280;4988;49.238;6.698;2022-08-05T02:12:54;98979.59;;;20.84;100.00
9899;BME280;4988;49.238;6.698;2022-08-05T02:15:40;98975.31;;;20.92;100.00
9899;BME280;4988;49.238;6.698;2022-08-05T02:18:17;98960.09;;;21.10;100.00
9899;BME280;4988;49.238;6.698;2022-08-05T02:20:52;98924.31;;;21.16;100.00
9899;BME280;4988;49.238;6.698;2022-08-05T02:23:22;98891.84;;;21.16;100.00
9899;BME280;4988;49.238;6.698;2022-08-05T02:25:50;98882.13;;;21.24;100.00
9899;BME280;4988;49.238;6.698;2022-08-05T02:28:27;98857.88;;;21.32;100.00
9899;BME280;4988;49.238;6.698;2022-08-05T02:30:58;98917.44;;;21.32;100.00
9899;BME280;4988;49.238;6.698;2022-08-05T02:33:25;98905.78;;;21.21;100.00
9899;BME280;4988;49.238;6.698;2022-08-05T02:35:53;98932.16;;;21.10;100.00
9899;BME280;4988;49.238;6.698;2022-08-05T02:38:20;98940.84;;;20.94;100.00
9899;BME280;4988;49.238;6.698;2022-08-05T02:40:45;98941.41;;;20.97;100.00
9899;BME280;4988;49.238;6.698;2022-08-05T02:43:12;98935.28;;;20.95;100.00
9899;BME280;4988;49.238;6.698;2022-08-05T02:45:39;98940.00;;;21.03;100.00
9899;BME280;4988;49.238;6.698;2022-08-05T02:48:06;98937.97;;;21.15;100.00
9899;BME280;4988;49.238;6.698;2022-08-05T02:50:33;98948.53;;;21.18;100.00
9899;BME280;4988;49.238;6.698;2022-08-05T02:52:59;98944.69;;;21.20;100.00
9899;BME280;4988;49.238;6.698;2022-08-05T02:55:26;98966.50;;;21.29;100.00
9899;BME280;4988;49.238;6.698;2022-08-05T02:57:53;98968.72;;;21.43;100.00
9899;BME280;4988;49.238;6.698;2022-08-05T03:00:19;98970.44;;;21.44;100.00
9899;BME280;4988;49.238;6.698;2022-08-05T03:02:46;98981.41;;;21.52;100.00
9899;BME280;4988;49.238;6.698;2022-08-05T03:05:14;99004.38;;;21.68;100.00
9899;BME280;4988;49.238;6.698;2022-08-05T03:07:40;99039.16;;;21.53;100.00
9899;BME280;4988;49.238;6.698;2022-08-05T03:10:07;99036.31;;;21.45;100.00
9899;BME280;4988;49.238;6.698;2022-08-05T03:12:34;99031.59;;;21.37;100.00
9899;BME280;4988;49.238;6.698;2022-08-05T03:15:01;98994.41;;;21.19;100.00
9899;BME280;4988;49.238;6.698;2022-08-05T03:17:26;98991.84;;;21.28;100.00
9899;BME280;4988;49.238;6.698;2022-08-05T03:19:53;98984.88;;;21.25;100.00
9899;BME280;4988;49.238;6.698;2022-08-05T03:22:19;98974.88;;;21.35;100.00
9899;BME280;4988;49.238;6.698;2022-08-05T03:24:45;98974.44;;;21.50;100.00
9899;BME280;4988;49.238;6.698;2022-08-05T03:27:11;98988.41;;;21.55;100.00
9899;BME280;4988;49.238;6.698;2022-08-05T03:29:37;98993.56;;;21.48;100.00
9899;BME280;4988;49.238;6.698;2022-08-05T03:32:03;99010.38;;;21.42;100.00
9899;BME280;4988;49.238;6.698;2022-08-05T03:34:29;99013.38;;;21.29;100.00
9899;BME280;4988;49.238;6.698;2022-08-05T03:36:55;99002.09;;;21.34;100.00
9899;BME280;4988;49.238;6.698;2022-08-05T03:39:21;99013.09;;;21.42;100.00
9899;BME280;4988;49.238;6.698;2022-08-05T03:41:46;98992.69;;;21.48;100.00
9899;BME280;4988;49.238;6.698;2022-08-05T03:44:11;98977.72;;;21.53;100.00
9899;BME280;4988;49.238;6.698;2022-08-05T03:46:37;98981.44;;;21.62;100.00
9899;BME280;4988;49.238;6.698;2022-08-05T03:49:02;98974.69;;;21.76;100.00
9899;BME280;4988;49.238;6.698;2022-08-05T03:51:32;98982.97;;;21.75;100.00
9899;BME280;4988;49.238;6.698;2022-08-05T03:54:07;98995.13;;;21.71;100.00
9899;BME280;4988;49.238;6.698;2022-08-05T03:56:45;99001.22;;;21.73;100.00
9899;BME280;4988;49.238;6.698;2022-08-05T03:59:16;99001.50;;;21.79;100.00
9899;BME280;4988;49.238;6.698;2022-08-05T04:01:46;99008.34;;;21.83;100.00
9899;BME280;4988;49.238;6.698;2022-08-05T04:04:14;99022.72;;;21.84;100.00
9899;BME280;4988;49.238;6.698;2022-08-05T04:06:40;99040.59;;;21.67;100.00
9899;BME280;4988;49.238;6.698;2022-08-05T04:09:07;99043.41;;;21.56;100.00
9899;BME280;4988;49.238;6.698;2022-08-05T04:11:34;99036.88;;;21.48;100.00
9899;BME280;4988;49.238;6.698;2022-08-05T04:14:01;99044.16;;;21.38;100.00
9899;BME280;4988;49.238;6.698;2022-08-05T04:16:26;99026.75;;;21.31;100.00
9899;BME280;4988;49.238;6.698;2022-08-05T04:18:52;99020.91;;;21.35;100.00
9899;BME280;4988;49.238;6.698;2022-08-05T04:21:18;99045.44;;;21.34;100.00
9899;BME280;4988;49.238;6.698;2022-08-05T04:23:43;99045.13;;;21.37;100.00
9899;BME280;4988;49.238;6.698;2022-08-05T04:26:09;99042.00;;;21.32;100.00
9899;BME280;4988;49.238;6.698;2022-08-05T04:28:34;99049.72;;;21.46;100.00
9899;BME280;4988;49.238;6.698;2022-08-05T04:33:26;99026.34;;;21.65;100.00
9899;BME280;4988;49.238;6.698;2022-08-05T04:35:51;99020.50;;;21.69;100.00
9899;BME280;4988;49.238;6.698;2022-08-05T04:38:16;99014.78;;;21.63;100.00
9899;BME280;4988;49.238;6.698;2022-08-05T04:40:42;99000.09;;;21.65;100.00
9899;BME280;4988;49.238;6.698;2022-08-05T04:43:07;99006.78;;;21.71;100.00
9899;BME280;4988;49.238;6.698;2022-08-05T04:45:33;98987.50;;;21.84;100.00
9899;BME280;4988;49.238;6.698;2022-08-05T04:48:13;98991.50;;;21.80;100.00
9899;BME280;4988;49.238;6.698;2022-08-05T04:50:46;98962.69;;;21.79;100.00
9899;BME280;4988;49.238;6.698;2022-08-05T04:53:14;98941.00;;;21.89;100.00
9899;BME280;4988;49.238;6.698;2022-08-05T04:55:41;98939.59;;;21.84;100.00
9899;BME280;4988;49.238;6.698;2022-08-05T04:58:11;98942.31;;;21.84;100.00
9899;BME280;4988;49.238;6.698;2022-08-05T05:00:37;98937.31;;;21.80;100.00
9899;BME280;4988;49.238;6.698;2022-08-05T05:03:04;98937.16;;;21.81;100.00
9899;BME280;4988;49.238;6.698;2022-08-05T05:05:30;98937.06;;;21.73;100.00
9899;BME280;4988;49.238;6.698;2022-08-05T05:08:04;98930.34;;;21.77;100.00
9899;BME280;4988;49.238;6.698;2022-08-05T05:10:32;98921.94;;;21.80;100.00
9899;BME280;4988;49.238;6.698;2022-08-05T05:13:01;98941.38;;;21.66;100.00
9899;BME280;4988;49.238;6.698;2022-08-05T05:15:26;98953.78;;;21.49;100.00
9899;BME280;4988;49.238;6.698;2022-08-05T05:17:52;98973.31;;;21.33;100.00
9899;BME280;4988;49.238;6.698;2022-08-05T05:20:17;98951.50;;;21.44;100.00
9899;BME280;4988;49.238;6.698;2022-08-05T05:22:42;98948.78;;;21.44;100.00
9899;BME280;4988;49.238;6.698;2022-08-05T05:25:09;98970.75;;;21.31;100.00
9899;BME280;4988;49.238;6.698;2022-08-05T05:27:35;98992.28;;;21.13;100.00
9899;BME280;4988;49.238;6.698;2022-08-05T05:30:01;99017.78;;;21.01;100.00
9899;BME280;4988;49.238;6.698;2022-08-05T05:32:27;99017.19;;;20.87;100.00
9899;BME280;4988;49.238;6.698;2022-08-05T05:34:52;99013.91;;;20.94;100.00
9899;BME280;4988;49.238;6.698;2022-08-05T05:37:18;99014.91;;;20.93;100.00
9899;BME280;4988;49.238;6.698;2022-08-05T05:39:43;99022.75;;;20.96;100.00
9899;BME280;4988;49.238;6.698;2022-08-05T05:42:08;99027.59;;;21.02;100.00
9899;BME280;4988;49.238;6.698;2022-08-05T05:44:34;99016.38;;;21.16;100.00
9899;BME280;4988;49.238;6.698;2022-08-05T05:46:59;99012.38;;;21.30;100.00
9899;BME280;4988;49.238;6.698;2022-08-05T05:49:25;99023.06;;;21.32;100.00
9899;BME280;4988;49.238;6.698;2022-08-05T05:51:51;99026.63;;;21.32;100.00
9899;BME280;4988;49.238;6.698;2022-08-05T05:54:16;99009.38;;;21.33;100.00
9899;BME280;4988;49.238;6.698;2022-08-05T05:56:41;99024.19;;;21.39;100.00
9899;BME280;4988;49.238;6.698;2022-08-05T05:59:07;99022.06;;;21.52;100.00
9899;BME280;4988;49.238;6.698;2022-08-05T06:01:34;98997.66;;;21.52;100.00
9899;BME280;4988;49.238;6.698;2022-08-05T06:03:59;98989.41;;;21.54;100.00
9899;BME280;4988;49.238;6.698;2022-08-05T06:06:25;98988.56;;;21.53;100.00
9899;BME280;4988;49.238;6.698;2022-08-05T06:08:50;99003.81;;;21.55;100.00
9899;BME280;4988;49.238;6.698;2022-08-05T06:11:15;99014.06;;;21.51;100.00
9899;BME280;4988;49.238;6.698;2022-08-05T06:13:41;99028.06;;;21.56;100.00
9899;BME280;4988;49.238;6.698;2022-08-05T06:16:06;99052.84;;;21.42;100.00
9899;BME280;4988;49.238;6.698;2022-08-05T06:18:31;99052.00;;;21.21;100.00
9899;BME280;4988;49.238;6.698;2022-08-05T06:20:57;99064.53;;;21.23;100.00
9899;BME280;4988;49.238;6.698;2022-08-05T06:23:22;99064.97;;;21.28;100.00
9899;BME280;4988;49.238;6.698;2022-08-05T06:25:48;99058.81;;;21.26;100.00
9899;BME280;4988;49.238;6.698;2022-08-05T06:28:15;99065.09;;;21.16;100.00
9899;BME280;4988;49.238;6.698;2022-08-05T06:30:40;99063.97;;;21.19;100.00
9899;BME280;4988;49.238;6.698;2022-08-05T06:33:06;99064.22;;;21.26;100.00
9899;BME280;4988;49.238;6.698;2022-08-05T06:35:31;99074.50;;;21.32;100.00
9899;BME280;4988;49.238;6.698;2022-08-05T06:37:56;99060.69;;;21.35;100.00
9899;BME280;4988;49.238;6.698;2022-08-05T06:40:22;99056.41;;;21.32;100.00
9899;BME280;4988;49.238;6.698;2022-08-05T06:42:48;99055.69;;;21.30;100.00
9899;BME280;4988;49.238;6.698;2022-08-05T06:45:14;99054.28;;;21.36;100.00
9899;BME280;4988;49.238;6.698;2022-08-05T06:47:39;99049.72;;;21.46;100.00
9899;BME280;4988;49.238;6.698;2022-08-05T06:50:05;99058.56;;;21.48;100.00
9899;BME280;4988;49.238;6.698;2022-08-05T06:52:31;99061.97;;;21.50;100.00
9899;BME280;4988;49.238;6.698;2022-08-05T06:54:56;99044.72;;;21.51;100.00
9899;BME280;4988;49.238;6.698;2022-08-05T06:57:21;99059.97;;;21.43;100.00
9899;BME280;4988;49.238;6.698;2022-08-05T06:59:47;99052.25;;;21.38;100.00
9899;BME280;4988;49.238;6.698;2022-08-05T07:02:12;99026.31;;;21.45;100.00
9899;BME280;4988;49.238;6.698;2022-08-05T07:04:38;99006.25;;;21.58;100.00
9899;BME280;4988;49.238;6.698;2022-08-05T07:07:03;98993.41;;;21.60;100.00
9899;BME280;4988;49.238;6.698;2022-08-05T07:09:28;99002.97;;;21.64;100.00
9899;BME280;4988;49.238;6.698;2022-08-05T07:11:54;99015.34;;;21.66;100.00
9899;BME280;4988;49.238;6.698;2022-08-05T07:14:20;99029.19;;;21.53;100.00
9899;BME280;4988;49.238;6.698;2022-08-05T07:17:04;99033.59;;;21.55;100.00
9899;BME280;4988;49.238;6.698;2022-08-05T07:19:30;99043.19;;;21.59;100.00
9899;BME280;4988;49.238;6.698;2022-08-05T07:21:55;99047.03;;;21.66;100.00
9899;BME280;4988;49.238;6.698;2022-08-05T07:24:22;99047.88;;;21.66;100.00
9899;BME280;4988;49.238;6.698;2022-08-05T07:26:47;99064.09;;;21.76;99.68
9899;BME280;4988;49.238;6.698;2022-08-05T07:29:13;99070.84;;;21.72;100.00
9899;BME280;4988;49.238;6.698;2022-08-05T07:31:39;99066.25;;;21.82;100.00
9899;BME280;4988;49.238;6.698;2022-08-05T07:34:05;99065.81;;;21.87;100.00
9899;BME280;4988;49.238;6.698;2022-08-05T07:36:31;99043.13;;;21.88;100.00
9899;BME280;4988;49.238;6.698;2022-08-05T07:39:04;99027.59;;;21.90;100.00
9899;BME280;4988;49.238;6.698;2022-08-05T07:41:30;99027.72;;;21.89;100.00
9899;BME280;4988;49.238;6.698;2022-08-05T07:43:57;99034.00;;;21.89;99.43
9899;BME280;4988;49.238;6.698;2022-08-05T07:46:29;99062.19;;;22.06;100.00
9899;BME280;4988;49.238;6.698;2022-08-05T07:48:58;99068.75;;;22.13;99.74
9899;BME280;4988;49.238;6.698;2022-08-05T07:51:27;99053.31;;;22.24;100.00
9899;BME280;4988;49.238;6.698;2022-08-05T07:53:53;99047.69;;;22.35;100.00
9899;BME280;4988;49.238;6.698;2022-08-05T07:56:19;99062.56;;;22.31;100.00
9899;BME280;4988;49.238;6.698;2022-08-05T07:58:45;99076.13;;;22.31;100.00
9899;BME280;4988;49.238;6.698;2022-08-05T08:01:10;99065.13;;;22.32;100.00
9899;BME280;4988;49.238;6.698;2022-08-05T08:03:36;99067.53;;;22.45;99.42
9899;BME280;4988;49.238;6.698;2022-08-05T08:06:01;99076.41;;;22.38;100.00
9899;BME280;4988;49.238;6.698;2022-08-05T08:08:27;99070.13;;;22.47;100.00
9899;BME280;4988;49.238;6.698;2022-08-05T08:10:52;99066.09;;;22.51;100.00
9899;BME280;4988;49.238;6.698;2022-08-05T08:13:19;99085.22;;;22.49;100.00
9899;BME280;4988;49.238;6.698;2022-08-05T08:15:45;99088.59;;;22.61;98.10
9899;BME280;4988;49.238;6.698;2022-08-05T08:18:10;99096.09;;;22.49;99.29
9899;BME280;4988;49.238;6.698;2022-08-05T08:20:35;99110.66;;;22.48;98.25
9899;BME280;4988;49.238;6.698;2022-08-05T08:23:01;99117.66;;;22.41;99.36
9899;BME280;4988;49.238;6.698;2022-08-05T08:25:31;99130.94;;;22.35;98.75
9899;BME280;4988;49.238;6.698;2022-08-05T08:27:56;99144.22;;;22.28;100.00
9899;BME280;4988;49.238;6.698;2022-08-05T08:30:23;99131.38;;;22.40;100.00
9899;BME280;4988;49.238;6.698;2022-08-05T08:32:49;99128.63;;;22.49;100.00
9899;BME280;4988;49.238;6.698;2022-08-05T08:35:14;99120.38;;;22.41;100.00
9899;BME280;4988;49.238;6.698;2022-08-05T08:37:39;99116.91;;;22.49;100.00
9899;BME280;4988;49.238;6.698;2022-08-05T08:40:05;99115.13;;;22.68;99.06
9899;BME280;4988;49.238;6.698;2022-08-05T08:42:31;99106.94;;;22.49;97.33
9899;BME280;4988;49.238;6.698;2022-08-05T08:44:58;99120.03;;;22.54;95.47
9899;BME280;4988;49.238;6.698;2022-08-05T08:47:26;99131.50;;;22.38;92.42
9899;BME280;4988;49.238;6.698;2022-08-05T08:49:54;99117.81;;;22.30;94.03
9899;BME280;4988;49.238;6.698;2022-08-05T08:52:28;99121.53;;;22.29;93.19
9899;BME280;4988;49.238;6.698;2022-08-05T08:54:54;99126.94;;;22.39;94.98
9899;BME280;4988;49.238;6.698;2022-08-05T08:57:21;99121.53;;;22.29;91.00
9899;BME280;4988;49.238;6.698;2022-08-05T08:59:50;99149.63;;;22.28;91.20
9899;BME280;4988;49.238;6.698;2022-08-05T09:02:19;99143.81;;;22.13;91.17
9899;BME280;4988;49.238;6.698;2022-08-05T09:04:45;99146.13;;;21.98;90.89
9899;BME280;4988;49.238;6.698;2022-08-05T09:07:12;99156.09;;;21.97;92.35
9899;BME280;4988;49.238;6.698;2022-08-05T09:09:38;99139.97;;;21.86;94.23
9899;BME280;4988;49.238;6.698;2022-08-05T09:12:07;99142.00;;;21.64;96.15
9899;BME280;4988;49.238;6.698;2022-08-05T09:14:34;99139.94;;;21.47;96.84
9899;BME280;4988;49.238;6.698;2022-08-05T09:17:01;99146.50;;;21.44;99.40
9899;BME280;4988;49.238;6.698;2022-08-05T09:19:28;99150.06;;;21.35;100.00
9899;BME280;4988;49.238;6.698;2022-08-05T09:21:53;99153.41;;;21.17;100.00
9899;BME280;4988;49.238;6.698;2022-08-05T09:24:19;99155.44;;;21.15;100.00
9899;BME280;4988;49.238;6.698;2022-08-05T09:26:52;99162.00;;;21.23;100.00
9899;BME280;4988;49.238;6.698;2022-08-05T09:29:20;99148.59;;;21.31;100.00
9899;BME280;4988;49.238;6.698;2022-08-05T09:32:03;99146.91;;;21.49;100.00
9899;BME280;4988;49.238;6.698;2022-08-05T09:34:51;99129.56;;;21.62;100.00
9899;BME280;4988;49.238;6.698;2022-08-05T09:37:24;99129.56;;;21.81;100.00
9899;BME280;4988;49.238;6.698;2022-08-05T09:39:50;99126.16;;;21.99;100.00
9899;BME280;4988;49.238;6.698;2022-08-05T09:42:19;99135.00;;;21.72;98.41
9899;BME280;4988;49.238;6.698;2022-08-05T09:44:52;99133.00;;;21.64;100.00
9899;BME280;4988;49.238;6.698;2022-08-05T09:47:21;99140.28;;;21.73;100.00
9899;BME280;4988;49.238;6.698;2022-08-05T09:49:52;99142.53;;;21.78;100.00
9899;BME280;4988;49.238;6.698;2022-08-05T09:52:23;99148.53;;;21.91;99.75
9899;BME280;4988;49.238;6.698;2022-08-05T09:54:57;99141.28;;;22.01;99.53
9899;BME280;4988;49.238;6.698;2022-08-05T10:00:00;99147.66;;;22.40;96.81
9899;BME280;4988;49.238;6.698;2022-08-05T10:02:38;99149.78;;;22.46;94.46
9899;BME280;4988;49.238;6.698;2022-08-05T10:05:10;99147.06;;;22.36;91.74
9899;BME280;4988;49.238;6.698;2022-08-05T10:08:02;99147.22;;;22.25;90.35
9899;BME280;4988;49.238;6.698;2022-08-05T10:10:38;99146.66;;;22.31;89.34
9899;BME280;4988;49.238;6.698;2022-08-05T10:13:05;99154.09;;;22.09;91.42
9899;BME280;4988;49.238;6.698;2022-08-05T10:15:33;99152.97;;;21.92;91.26
9899;BME280;4988;49.238;6.698;2022-08-05T10:18:20;99171.34;;;22.08;93.45
9899;BME280;4988;49.238;6.698;2022-08-05T10:20:50;99168.19;;;22.32;93.66
9899;BME280;4988;49.238;6.698;2022-08-05T10:23:36;99166.50;;;22.41;89.73
9899;BME280;4988;49.238;6.698;2022-08-05T10:26:05;99169.19;;;22.51;89.59
9899;BME280;4988;49.238;6.698;2022-08-05T10:28:32;99156.34;;;22.43;89.80
9899;BME280;4988;49.238;6.698;2022-08-05T10:30:58;99168.63;;;22.47;89.57
9899;BME280;4988;49.238;6.698;2022-08-05T10:33:26;99164.06;;;22.38;90.57
9899;BME280;4988;49.238;6.698;2022-08-05T10:35:53;99179.06;;;22.42;90.32
9899;BME280;4988;49.238;6.698;2022-08-05T10:38:21;99177.63;;;22.38;89.03
9899;BME280;4988;49.238;6.698;2022-08-05T10:43:35;99185.13;;;22.64;87.96
9899;BME280;4988;49.238;6.698;2022-08-05T10:46:07;99185.72;;;22.58;90.34
9899;BME280;4988;49.238;6.698;2022-08-05T10:48:44;99181.81;;;22.70;87.65
9899;BME280;4988;49.238;6.698;2022-08-05T10:51:20;99180.28;;;22.58;87.50
9899;BME280;4988;49.238;6.698;2022-08-05T10:56:23;99196.28;;;22.61;88.44
9899;BME280;4988;49.238;6.698;2022-08-05T10:59:04;99198.44;;;22.28;88.41
9899;BME280;4988;49.238;6.698;2022-08-05T11:01:40;99194.19;;;22.15;91.07
9899;BME280;4988;49.238;6.698;2022-08-05T11:09:22;99191.88;;;22.30;88.18
9899;BME280;4988;49.238;6.698;2022-08-05T11:11:49;99190.59;;;22.44;86.41
9899;BME280;4988;49.238;6.698;2022-08-05T11:14:35;99202.47;;;22.43;86.64
9899;BME280;4988;49.238;6.698;2022-08-05T11:17:27;99203.16;;;22.55;86.31
9899;BME280;4988;49.238;6.698;2022-08-05T11:19:54;99212.25;;;22.64;87.05
9899;BME280;4988;49.238;6.698;2022-08-05T11:22:48;99224.25;;;22.71;86.41
9899;BME280;4988;49.238;6.698;2022-08-05T11:27:56;99244.78;;;22.84;87.96
9899;BME280;4988;49.238;6.698;2022-08-05T11:33:31;99254.56;;;22.67;85.32
9899;BME280;4988;49.238;6.698;2022-08-05T11:35:58;99242.97;;;22.74;84.29
9899;BME280;4988;49.238;6.698;2022-08-05T11:43:42;99240.78;;;22.88;83.98
9899;BME280;4988;49.238;6.698;2022-08-05T11:46:08;99248.16;;;23.05;86.31
9899;BME280;4988;49.238;6.698;2022-08-05T11:48:33;99257.84;;;23.18;83.67
9899;BME280;4988;49.238;6.698;2022-08-05T11:51:00;99266.91;;;23.36;83.94
9899;BME280;4988;49.238;6.698;2022-08-05T11:53:26;99275.72;;;23.20;82.54
9899;BME280;4988;49.238;6.698;2022-08-05T11:55:56;99264.66;;;23.32;81.87
9899;BME280;4988;49.238;6.698;2022-08-05T11:58:43;99268.38;;;23.31;81.46
9899;BME280;4988;49.238;6.698;2022-08-05T12:01:14;99248.06;;;23.35;81.91
9899;BME280;4988;49.238;6.698;2022-08-05T12:03:53;99248.00;;;23.44;82.31
9899;BME280;4988;49.238;6.698;2022-08-05T12:06:24;99238.59;;;23.85;78.15
9899;BME280;4988;49.238;6.698;2022-08-05T12:08:57;99238.94;;;24.18;76.52
9899;BME280;4988;49.238;6.698;2022-08-05T12:11:25;99236.75;;;24.39;75.51
9899;BME280;4988;49.238;6.698;2022-08-05T12:13:53;99234.34;;;24.36;74.44
9899;BME280;4988;49.238;6.698;2022-08-05T12:16:27;99240.75;;;24.27;77.10
9899;BME280;4988;49.238;6.698;2022-08-05T12:18:53;99236.84;;;24.48;73.48
9899;BME280;4988;49.238;6.698;2022-08-05T12:21:23;99243.34;;;24.73;75.70
9899;BME280;4988;49.238;6.698;2022-08-05T12:26:16;99228.78;;;24.20;73.14
9899;BME280;4988;49.238;6.698;2022-08-05T12:28:42;99239.28;;;24.15;75.14
9899;BME280;4988;49.238;6.698;2022-08-05T12:31:07;99249.16;;;24.16;73.93
9899;BME280;4988;49.238;6.698;2022-08-05T12:33:33;99244.00;;;24.31;72.48
9899;BME280;4988;49.238;6.698;2022-08-05T12:36:00;99239.66;;;24.38;72.62
9899;BME280;4988;49.238;6.698;2022-08-05T12:38:26;99245.38;;;24.53;70.52
9899;BME280;4988;49.238;6.698;2022-08-05T12:40:52;99238.91;;;24.72;71.51
9899;BME280;4988;49.238;6.698;2022-08-05T12:43:19;99244.72;;;24.77;68.73
9899;BME280;4988;49.238;6.698;2022-08-05T12:45:50;99240.06;;;24.51;71.00
9899;BME280;4988;49.238;6.698;2022-08-05T12:48:16;99250.44;;;24.12;73.32
9899;BME280;4988;49.238;6.698;2022-08-05T12:50:43;99248.75;;;24.11;73.25
9899;BME280;4988;49.238;6.698;2022-08-05T12:53:14;99247.28;;;23.70;75.05
9899;BME280;4988;49.238;6.698;2022-08-05T12:55:40;99243.25;;;23.74;75.21
9899;BME280;4988;49.238;6.698;2022-08-05T12:58:06;99242.63;;;23.81;74.53
9899;BME280;4988;49.238;6.698;2022-08-05T13:00:32;99240.66;;;24.01;73.70
9899;BME280;4988;49.238;6.698;2022-08-05T13:03:00;99242.75;;;24.07;72.90
9899;BME280;4988;49.238;6.698;2022-08-05T13:05:25;99244.72;;;23.97;70.50
9899;BME280;4988;49.238;6.698;2022-08-05T13:07:56;99246.88;;;24.29;72.22
9899;BME280;4988;49.238;6.698;2022-08-05T13:10:21;99244.22;;;24.55;70.77
9899;BME280;4988;49.238;6.698;2022-08-05T13:12:48;99249.91;;;24.88;72.31
9899;BME280;4988;49.238;6.698;2022-08-05T13:15:13;99243.00;;;25.02;70.09
9899;BME280;4988;49.238;6.698;2022-08-05T13:17:39;99246.09;;;25.08;68.40
9899;BME280;4988;49.238;6.698;2022-08-05T13:20:10;99250.34;;;25.02;68.92
9899;BME280;4988;49.238;6.698;2022-08-05T13:22:38;99247.38;;;24.95;69.79
9899;BME280;4988;49.238;6.698;2022-08-05T13:25:09;99239.81;;;24.81;71.20
9899;BME280;4988;49.238;6.698;2022-08-05T13:27:35;99233.84;;;24.59;71.57
9899;BME280;4988;49.238;6.698;2022-08-05T13:30:01;99243.13;;;24.66;71.80
9899;BME280;4988;49.238;6.698;2022-08-05T13:32:27;99240.31;;;24.58;73.09
9899;BME280;4988;49.238;6.698;2022-08-05T13:34:52;99247.28;;;24.79;72.13
9899;BME280;4988;49.238;6.698;2022-08-05T13:37:19;99247.09;;;24.98;73.12
9899;BME280;4988;49.238;6.698;2022-08-05T13:39:46;99237.97;;;24.89;72.04
9899;BME280;4988;49.238;6.698;2022-08-05T13:42:12;99246.75;;;25.01;70.70
9899;BME280;4988;49.238;6.698;2022-08-05T13:44:37;99240.13;;;25.04;70.49
9899;BME280;4988;49.238;6.698;2022-08-05T13:47:02;99236.97;;;25.25;72.51
9899;BME280;4988;49.238;6.698;2022-08-05T13:49:28;99246.09;;;25.08;70.35
9899;BME280;4988;49.238;6.698;2022-08-05T13:51:53;99246.91;;;25.00;70.93
9899;BME280;4988;49.238;6.698;2022-08-05T13:54:19;99241.97;;;24.69;72.28
9899;BME280;4988;49.238;6.698;2022-08-05T13:56:45;99246.47;;;24.60;73.38
9899;BME280;4988;49.238;6.698;2022-08-05T13:59:10;99245.88;;;24.75;72.41